Time;durP1;ratioP1;P1;durP2;ratioP2;P2;SDS_P1;SDS_P2;PMS_P1;PMS_P2;Temp;Humidity;BMP_temperature;BMP_pressure;BME280_temperature;BME280_humidity;BME280_pressure;Samples;Min_cycle;Max_cycle;Signal;HPM_P1;HPM_P2
2021/09/17 00:00:29;;;;;;;8.23;7.35;;;15.70;99.90;;;;;;2098101;28;20759;-67
2021/09/17 00:01:31;;;;;;;7.30;6.60;;;15.70;99.90;;;;;;2097479;28;20021;-68
2021/09/17 00:02:31;;;;;;;7.57;6.80;;;15.70;99.90;;;;;;2097442;28;20087;-67
2021/09/17 00:03:32;;;;;;;7.72;6.30;;;15.70;99.90;;;;;;2096798;28;20128;-68
2021/09/17 00:04:33;;;;;;;8.45;6.63;;;15.70;99.90;;;;;;2096825;28;20030;-67
2021/09/17 00:05:33;;;;;;;7.03;6.32;;;15.70;99.90;;;;;;2097440;28;20017;-67
2021/09/17 00:06:34;;;;;;;6.63;6.03;;;15.70;99.90;;;;;;2097426;28;20048;-67
2021/09/17 00:07:35;;;;;;;7.20;6.50;;;15.70;99.90;;;;;;2096761;28;20122;-67
2021/09/17 00:08:35;;;;;;;7.43;6.68;;;15.70;99.90;;;;;;2097479;28;20517;-67
2021/09/17 00:09:36;;;;;;;7.65;6.90;;;15.70;99.90;;;;;;2097496;28;20040;-67
2021/09/17 00:10:37;;;;;;;7.80;6.25;;;15.70;99.90;;;;;;2097154;28;20029;-67
2021/09/17 00:11:38;;;;;;;9.05;6.72;;;15.70;99.90;;;;;;2096797;28;20024;-68
2021/09/17 00:12:39;;;;;;;11.10;8.10;;;15.70;99.90;;;;;;2097044;28;20050;-67
2021/09/17 00:13:40;;;;;;;9.00;7.97;;;15.80;99.90;;;;;;2096858;28;20036;-68
2021/09/17 00:14:41;;;;;;;8.43;7.47;;;15.70;99.90;;;;;;2096908;28;20052;-68
2021/09/17 00:15:41;;;;;;;10.77;8.02;;;15.70;99.90;;;;;;2097537;28;20065;-68
2021/09/17 00:16:42;;;;;;;12.25;9.18;;;15.70;99.90;;;;;;2097360;28;20016;-68
2021/09/17 00:17:43;;;;;;;11.57;9.35;;;15.70;99.90;;;;;;2096769;28;20024;-68
2021/09/17 00:18:44;;;;;;;11.10;8.75;;;15.70;99.90;;;;;;2097201;28;20047;-68
2021/09/17 00:19:45;;;;;;;9.35;8.35;;;15.70;99.90;;;;;;2097385;28;20797;-68
2021/09/17 00:20:46;;;;;;;8.68;7.78;;;15.70;99.90;;;;;;2097326;28;20064;-67
2021/09/17 00:21:46;;;;;;;8.82;6.90;;;15.80;99.90;;;;;;2096531;28;20027;-68
2021/09/17 00:22:48;;;;;;;8.25;7.30;;;15.80;99.90;;;;;;2096534;28;20033;-69
2021/09/17 00:23:48;;;;;;;9.32;7.63;;;15.80;99.90;;;;;;2097295;28;20032;-68
2021/09/17 00:24:49;;;;;;;9.23;7.70;;;15.80;99.90;;;;;;2097299;28;20481;-68
2021/09/17 00:25:49;;;;;;;9.27;8.30;;;15.80;99.90;;;;;;2096773;28;20145;-68
2021/09/17 00:26:50;;;;;;;8.48;7.57;;;15.80;99.90;;;;;;2096768;28;20039;-68
2021/09/17 00:27:52;;;;;;;9.80;8.50;;;15.80;99.90;;;;;;2096177;28;20024;-68
2021/09/17 00:28:53;;;;;;;9.55;7.93;;;15.80;99.90;;;;;;2096851;28;20032;-68
2021/09/17 00:29:53;;;;;;;9.60;7.63;;;15.80;99.90;;;;;;2097373;28;20104;-68
2021/09/17 00:30:54;;;;;;;13.52;9.55;;;15.80;99.90;;;;;;2096536;28;20658;-68
2021/09/17 00:31:54;;;;;;;13.00;9.35;;;15.80;99.90;;;;;;2096433;28;20032;-67
2021/09/17 00:32:56;;;;;;;10.35;8.95;;;15.80;99.90;;;;;;2097535;28;20032;-68
2021/09/17 00:33:57;;;;;;;12.40;9.20;;;15.80;99.90;;;;;;2096917;28;20039;-68
2021/09/17 00:34:58;;;;;;;13.02;9.60;;;15.80;99.90;;;;;;2097008;28;20119;-68
2021/09/17 00:35:58;;;;;;;10.80;9.60;;;15.80;99.90;;;;;;2097644;28;20028;-68
2021/09/17 00:36:59;;;;;;;12.38;9.13;;;15.80;99.90;;;;;;2098140;28;20043;-69
2021/09/17 00:38:03;;;;;;;10.23;8.40;;;15.80;99.90;;;;;;2098354;28;20461;-68
2021/09/17 00:39:04;;;;;;;9.18;7.85;;;15.80;99.90;;;;;;2097614;28;20077;-68
2021/09/17 00:40:05;;;;;;;10.18;7.43;;;15.80;99.90;;;;;;2097775;28;20539;-68
2021/09/17 00:41:06;;;;;;;8.38;7.40;;;15.80;99.90;;;;;;2096925;28;20028;-68
2021/09/17 00:42:06;;;;;;;8.55;7.60;;;15.80;99.90;;;;;;2096506;28;20051;-68
2021/09/17 00:43:07;;;;;;;9.15;7.72;;;15.90;99.90;;;;;;2097233;28;20111;-68
2021/09/17 00:44:09;;;;;;;9.27;7.47;;;15.80;99.90;;;;;;2093638;28;20072;-68
2021/09/17 00:45:12;;;;;;;8.05;6.75;;;15.90;99.90;;;;;;2088681;28;20040;-68
2021/09/17 00:46:12;;;;;;;8.88;7.45;;;15.90;99.90;;;;;;2088137;28;20029;-67
2021/09/17 00:47:13;;;;;;;8.43;6.97;;;15.90;99.90;;;;;;2087733;28;20075;-67
2021/09/17 00:48:14;;;;;;;8.13;7.20;;;15.90;99.90;;;;;;2088843;28;20029;-67
2021/09/17 00:49:15;;;;;;;10.48;7.93;;;15.90;99.90;;;;;;2088852;28;20524;-67
2021/09/17 00:50:18;;;;;;;9.35;8.40;;;15.90;99.90;;;;;;2088023;28;20036;-67
2021/09/17 00:51:19;;;;;;;8.77;7.30;;;15.90;99.90;;;;;;2088127;28;20025;-69
2021/09/17 00:52:19;;;;;;;9.48;8.10;;;15.90;99.90;;;;;;2088871;28;20436;-67
2021/09/17 00:53:20;;;;;;;10.95;8.15;;;15.90;99.90;;;;;;2088733;28;20086;-67
2021/09/17 00:54:21;;;;;;;12.52;8.60;;;15.90;99.90;;;;;;2088993;28;20200;-67
2021/09/17 00:55:22;;;;;;;10.20;8.02;;;15.90;99.90;;;;;;2088120;28;20029;-67
2021/09/17 00:56:23;;;;;;;11.02;8.50;;;15.90;99.90;;;;;;2079863;28;20033;-67
2021/09/17 00:57:24;;;;;;;8.80;7.90;;;15.80;99.90;;;;;;2087516;28;20100;-67
2021/09/17 00:58:25;;;;;;;10.85;8.32;;;15.90;99.90;;;;;;2088289;28;20031;-67
2021/09/17 00:59:25;;;;;;;10.15;8.25;;;15.80;99.90;;;;;;2088832;28;20025;-67
2021/09/17 01:00:26;;;;;;;10.63;7.88;;;15.80;99.90;;;;;;2088944;28;20025;-67
2021/09/17 01:01:27;;;;;;;8.50;7.60;;;15.80;99.90;;;;;;2088793;28;20478;-67
2021/09/17 01:02:27;;;;;;;9.13;7.57;;;15.80;99.90;;;;;;2088700;28;20028;-67
2021/09/17 01:03:29;;;;;;;10.43;7.78;;;15.80;99.90;;;;;;2096470;28;20524;-67
2021/09/17 01:04:30;;;;;;;9.95;7.93;;;15.80;99.90;;;;;;2087874;28;20082;-67
2021/09/17 01:05:31;;;;;;;10.73;7.95;;;15.80;99.90;;;;;;2088252;28;20056;-67
2021/09/17 01:06:32;;;;;;;10.60;7.28;;;15.80;99.90;;;;;;2088715;28;20031;-67
2021/09/17 01:07:33;;;;;;;9.93;7.20;;;15.80;99.90;;;;;;2088087;28;20064;-67
2021/09/17 01:08:33;;;;;;;9.65;7.45;;;15.80;99.90;;;;;;2088793;28;20025;-68
2021/09/17 01:09:34;;;;;;;10.10;6.93;;;15.80;99.90;;;;;;2088935;28;20082;-67
2021/09/17 01:10:36;;;;;;;10.55;6.85;;;15.80;99.90;;;;;;2089072;28;20588;-67
2021/09/17 01:11:37;;;;;;;9.68;7.22;;;15.80;99.90;;;;;;2088979;28;20040;-67
2021/09/17 01:12:38;;;;;;;9.55;7.10;;;15.80;99.90;;;;;;2088879;28;20565;-67
2021/09/17 01:13:39;;;;;;;10.30;6.72;;;15.80;99.90;;;;;;2079724;28;20628;-67
2021/09/17 01:14:41;;;;;;;8.98;6.53;;;15.80;99.90;;;;;;2080073;28;20128;-67
2021/09/17 01:15:41;;;;;;;6.43;5.68;;;15.80;99.90;;;;;;2088839;28;20096;-67
2021/09/17 01:16:42;;;;;;;8.50;6.10;;;15.80;99.90;;;;;;2088736;28;20509;-67
2021/09/17 01:17:45;;;;;;;6.40;5.75;;;15.80;99.90;;;;;;2088118;28;20063;-67
2021/09/17 01:18:45;;;;;;;8.50;6.18;;;15.80;99.90;;;;;;2088966;28;20491;-67
2021/09/17 01:19:47;;;;;;;8.32;5.88;;;15.80;99.90;;;;;;2088212;28;20056;-67
2021/09/17 01:20:47;;;;;;;7.45;5.88;;;15.80;99.90;;;;;;2079750;28;20120;-68
2021/09/17 01:21:57;;;;;;;8.45;6.15;;;15.80;99.90;;;;;;2087895;28;20071;-69
2021/09/17 01:22:57;;;;;;;8.40;6.10;;;15.80;99.90;;;;;;2089837;28;20029;-69
2021/09/17 01:23:58;;;;;;;7.47;6.07;;;15.80;99.90;;;;;;2090731;28;20033;-69
2021/09/17 01:24:59;;;;;;;8.00;6.10;;;15.80;99.90;;;;;;2091021;28;20039;-69
2021/09/17 01:25:59;;;;;;;7.50;5.90;;;15.80;99.90;;;;;;2090495;28;20363;-69
2021/09/17 01:27:00;;;;;;;10.35;6.00;;;15.80;99.90;;;;;;2090346;28;20032;-69
2021/09/17 01:28:01;;;;;;;8.05;5.78;;;15.80;99.90;;;;;;2089793;28;20417;-69
2021/09/17 01:29:01;;;;;;;9.07;5.68;;;15.80;99.90;;;;;;2089870;28;20033;-69
2021/09/17 01:30:04;;;;;;;7.95;5.60;;;15.80;99.90;;;;;;2090388;28;20033;-69
2021/09/17 01:31:05;;;;;;;7.07;5.32;;;15.80;99.90;;;;;;2091400;28;20071;-69
2021/09/17 01:32:06;;;;;;;6.55;5.53;;;15.80;99.90;;;;;;2098857;28;20047;-69
2021/09/17 01:33:06;;;;;;;6.60;5.00;;;15.80;99.90;;;;;;2090606;28;20256;-69
2021/09/17 01:34:08;;;;;;;6.22;4.65;;;15.80;99.90;;;;;;2090551;28;20040;-69
2021/09/17 01:35:14;;;;;;;7.43;5.07;;;15.80;99.90;;;;;;2090909;28;20067;-69
2021/09/17 01:36:14;;;;;;;8.52;5.93;;;15.80;99.90;;;;;;2090865;28;20021;-68
2021/09/17 01:37:16;;;;;;;10.43;5.40;;;15.80;99.90;;;;;;2090853;28;20466;-69
2021/09/17 01:38:16;;;;;;;6.53;4.97;;;15.80;99.90;;;;;;2091106;28;20013;-68
2021/09/17 01:39:18;;;;;;;6.32;5.35;;;15.80;99.90;;;;;;2090883;28;20059;-68
2021/09/17 01:40:19;;;;;;;8.98;5.70;;;15.80;99.90;;;;;;2090452;28;20040;-68
2021/09/17 01:41:20;;;;;;;9.07;5.20;;;15.80;99.90;;;;;;2089848;28;20108;-68
2021/09/17 01:42:21;;;;;;;8.50;5.43;;;15.80;99.90;;;;;;2089797;28;20082;-68
2021/09/17 01:43:22;;;;;;;7.13;5.45;;;15.80;99.90;;;;;;2097844;28;20025;-68
2021/09/17 01:44:22;;;;;;;9.00;5.35;;;15.80;99.90;;;;;;2097933;28;20059;-68
2021/09/17 01:45:24;;;;;;;7.28;5.40;;;15.80;99.90;;;;;;2090310;28;20443;-68
2021/09/17 01:46:24;;;;;;;9.40;5.50;;;15.70;99.90;;;;;;2090284;28;20091;-68
2021/09/17 01:47:25;;;;;;;7.88;4.97;;;15.80;99.90;;;;;;2088772;28;20132;-68
2021/09/17 01:48:27;;;;;;;9.15;6.13;;;15.70;99.90;;;;;;2089677;28;20021;-68
2021/09/17 01:49:28;;;;;;;7.22;4.70;;;15.80;99.90;;;;;;2090329;28;20378;-68
2021/09/17 01:50:29;;;;;;;6.93;4.85;;;15.70;99.90;;;;;;2090317;28;20104;-68
2021/09/17 01:51:29;;;;;;;8.38;5.10;;;15.80;99.90;;;;;;2090270;28;20483;-68
2021/09/17 01:52:30;;;;;;;8.60;5.13;;;15.80;99.90;;;;;;2090261;28;20466;-68
2021/09/17 01:53:33;;;;;;;8.63;5.40;;;15.70;99.90;;;;;;2090166;28;20248;-68
2021/09/17 01:54:35;;;;;;;6.75;4.80;;;15.70;99.90;;;;;;2089513;28;20029;-68
2021/09/17 01:55:36;;;;;;;7.88;5.05;;;15.80;99.90;;;;;;2089550;28;20033;-69
2021/09/17 01:56:36;;;;;;;8.20;5.20;;;15.80;99.90;;;;;;2090273;28;20086;-69
2021/09/17 01:57:37;;;;;;;6.03;5.15;;;15.70;99.90;;;;;;2088854;28;20083;-68
2021/09/17 01:58:38;;;;;;;6.35;4.85;;;15.80;99.90;;;;;;2089631;28;20108;-68
2021/09/17 01:59:39;;;;;;;10.77;5.20;;;15.70;99.90;;;;;;2089510;28;20359;-68
2021/09/17 02:00:40;;;;;;;5.18;4.50;;;15.70;99.90;;;;;;2089469;28;20025;-68
2021/09/17 02:01:40;;;;;;;6.45;5.20;;;15.70;99.90;;;;;;2090020;28;20094;-68
2021/09/17 02:02:41;;;;;;;5.78;4.43;;;15.70;99.90;;;;;;2090222;28;20474;-68
2021/09/17 02:03:41;;;;;;;7.70;4.82;;;15.70;99.90;;;;;;2090231;28;20537;-68
2021/09/17 02:04:42;;;;;;;6.45;5.05;;;15.70;99.90;;;;;;2089542;28;20029;-68
2021/09/17 02:05:43;;;;;;;6.63;4.88;;;15.70;99.90;;;;;;2089709;28;20055;-68
2021/09/17 02:06:43;;;;;;;5.80;4.55;;;15.70;99.90;;;;;;2090174;28;20110;-68
2021/09/17 02:07:44;;;;;;;6.28;4.35;;;15.70;99.90;;;;;;2089454;28;20029;-68
2021/09/17 02:08:45;;;;;;;7.25;4.80;;;15.70;99.90;;;;;;2090289;28;20095;-68
2021/09/17 02:09:45;;;;;;;5.22;4.20;;;15.70;99.90;;;;;;2090183;28;20037;-68
2021/09/17 02:10:46;;;;;;;8.27;4.63;;;15.70;99.90;;;;;;2090027;28;20044;-68
2021/09/17 02:11:47;;;;;;;6.90;4.82;;;15.70;99.90;;;;;;2097688;28;20032;-69
2021/09/17 02:12:47;;;;;;;7.18;4.60;;;15.70;99.90;;;;;;2097635;28;20493;-68
2021/09/17 02:13:48;;;;;;;6.28;4.30;;;15.80;99.90;;;;;;2089964;28;20482;-68
2021/09/17 02:14:48;;;;;;;7.28;5.00;;;15.80;99.90;;;;;;2089447;28;20029;-68
2021/09/17 02:15:51;;;;;;;6.13;4.45;;;15.70;99.90;;;;;;2089481;28;20500;-68
2021/09/17 02:16:52;;;;;;;8.57;4.55;;;15.80;99.90;;;;;;2089526;28;20067;-68
2021/09/17 02:17:53;;;;;;;7.40;4.50;;;15.70;99.90;;;;;;2088657;28;20463;-68
2021/09/17 02:18:54;;;;;;;5.55;4.22;;;15.70;99.90;;;;;;2089939;28;20037;-68
2021/09/17 02:19:54;;;;;;;7.35;4.60;;;15.70;99.90;;;;;;2089941;28;20021;-68
2021/09/17 02:20:55;;;;;;;6.95;4.45;;;15.70;99.90;;;;;;2090110;28;20395;-68
2021/09/17 02:21:55;;;;;;;7.20;4.65;;;15.70;99.90;;;;;;2089509;28;20588;-68
2021/09/17 02:22:56;;;;;;;7.68;4.95;;;15.80;99.90;;;;;;2089576;28;20029;-69
2021/09/17 02:23:57;;;;;;;5.57;4.50;;;15.70;99.90;;;;;;2090010;28;20532;-68
2021/09/17 02:24:58;;;;;;;6.63;4.70;;;15.70;99.90;;;;;;2089296;28;20029;-68
2021/09/17 02:25:59;;;;;;;6.95;4.85;;;15.70;99.90;;;;;;2081218;28;20025;-68
2021/09/17 02:27:00;;;;;;;6.93;4.13;;;15.70;99.90;;;;;;2089334;28;20401;-69
2021/09/17 02:28:00;;;;;;;8.32;4.72;;;15.70;99.90;;;;;;2089232;28;20029;-69
2021/09/17 02:29:01;;;;;;;7.68;4.50;;;15.70;99.90;;;;;;2089861;28;20472;-68
2021/09/17 02:30:04;;;;;;;10.35;4.97;;;15.70;99.90;;;;;;2089956;28;20062;-68
2021/09/17 02:31:05;;;;;;;8.75;5.13;;;15.70;99.90;;;;;;2089792;28;20091;-68
2021/09/17 02:32:06;;;;;;;7.95;4.60;;;15.70;99.90;;;;;;2089795;28;20071;-68
2021/09/17 02:33:07;;;;;;;6.10;4.30;;;15.70;99.90;;;;;;2089796;28;20413;-68
2021/09/17 02:34:07;;;;;;;6.57;4.80;;;15.70;99.90;;;;;;2089935;28;20044;-67
2021/09/17 02:35:09;;;;;;;6.10;4.65;;;15.70;99.90;;;;;;2090007;28;20032;-68
2021/09/17 02:36:09;;;;;;;5.70;4.15;;;15.70;99.90;;;;;;2090117;28;20398;-68
2021/09/17 02:37:10;;;;;;;4.53;4.07;;;15.70;99.90;;;;;;2089144;28;20033;-68
2021/09/17 02:38:11;;;;;;;10.07;5.00;;;15.70;99.90;;;;;;2090002;28;20032;-67
2021/09/17 02:39:13;;;;;;;6.50;4.57;;;15.70;99.90;;;;;;2089271;28;20470;-68
2021/09/17 02:40:16;;;;;;;7.55;4.70;;;15.70;99.90;;;;;;2089417;28;20393;-68
2021/09/17 02:41:17;;;;;;;9.73;5.57;;;15.70;99.90;;;;;;2089780;28;20027;-67
2021/09/17 02:42:18;;;;;;;7.85;4.90;;;15.70;99.90;;;;;;2089261;28;20509;-68
2021/09/17 02:43:18;;;;;;;8.23;4.72;;;15.70;99.90;;;;;;2081143;28;20506;-67
2021/09/17 02:44:19;;;;;;;8.98;5.10;;;15.70;99.90;;;;;;2080789;28;20033;-68
2021/09/17 02:45:20;;;;;;;7.25;5.05;;;15.70;99.90;;;;;;2089179;28;20036;-67
2021/09/17 02:46:20;;;;;;;8.38;4.43;;;15.70;99.90;;;;;;2089896;28;20074;-68
2021/09/17 02:47:21;;;;;;;5.72;4.50;;;15.70;99.90;;;;;;2088931;28;20025;-68
2021/09/17 02:48:22;;;;;;;5.97;4.68;;;15.70;99.90;;;;;;2089119;28;20033;-67
2021/09/17 02:49:22;;;;;;;4.72;4.22;;;15.70;99.90;;;;;;2089318;28;20122;-68
2021/09/17 02:50:23;;;;;;;5.57;4.38;;;15.70;99.90;;;;;;2089997;28;20067;-68
2021/09/17 02:51:24;;;;;;;4.95;4.00;;;15.70;99.90;;;;;;2090435;28;20461;-69
2021/09/17 02:52:24;;;;;;;5.85;4.53;;;15.70;99.90;;;;;;2090337;28;20043;-68
2021/09/17 02:53:25;;;;;;;5.40;4.18;;;15.70;99.90;;;;;;2089779;28;20493;-68
2021/09/17 02:54:26;;;;;;;5.30;4.00;;;15.70;99.90;;;;;;2089135;28;20037;-68
2021/09/17 02:55:26;;;;;;;5.45;4.15;;;15.70;99.90;;;;;;2089481;28;20478;-69
2021/09/17 02:56:27;;;;;;;6.20;4.43;;;15.80;99.90;;;;;;2089834;28;20402;-68
2021/09/17 02:57:28;;;;;;;4.95;4.00;;;15.70;99.90;;;;;;2089169;28;20111;-68
2021/09/17 02:58:28;;;;;;;4.75;4.00;;;15.70;99.90;;;;;;2088897;28;20025;-68
2021/09/17 02:59:29;;;;;;;7.05;4.68;;;15.80;99.90;;;;;;2089130;28;20038;-68
2021/09/17 03:00:30;;;;;;;8.65;4.80;;;15.70;99.90;;;;;;2089826;28;20438;-68
2021/09/17 03:01:31;;;;;;;8.25;4.85;;;15.70;99.90;;;;;;2089750;28;20032;-68
2021/09/17 03:02:32;;;;;;;7.60;5.03;;;15.70;99.90;;;;;;2089126;28;20132;-68
2021/09/17 03:03:32;;;;;;;6.13;4.70;;;15.70;99.90;;;;;;2080828;28;20029;-68
2021/09/17 03:04:33;;;;;;;7.13;4.68;;;15.70;99.90;;;;;;2080883;28;20033;-68
2021/09/17 03:05:34;;;;;;;6.43;4.38;;;15.70;99.90;;;;;;2089157;28;20031;-68
2021/09/17 03:06:34;;;;;;;5.65;4.18;;;15.70;99.90;;;;;;2089022;28;20484;-68
2021/09/17 03:07:35;;;;;;;8.15;4.50;;;15.70;99.90;;;;;;2088453;28;20466;-68
2021/09/17 03:08:35;;;;;;;6.18;4.30;;;15.70;99.90;;;;;;2089055;28;20029;-68
2021/09/17 03:09:36;;;;;;;4.78;3.50;;;15.70;99.90;;;;;;2089067;28;20053;-69
2021/09/17 03:10:37;;;;;;;6.60;4.40;;;15.70;99.90;;;;;;2089500;28;20410;-68
2021/09/17 03:11:37;;;;;;;6.65;4.47;;;15.70;99.90;;;;;;2089682;28;20037;-69
2021/09/17 03:12:38;;;;;;;7.15;3.90;;;15.70;99.90;;;;;;2088921;28;20028;-69
2021/09/17 03:13:39;;;;;;;7.47;4.40;;;15.70;99.90;;;;;;2089051;28;20087;-69
2021/09/17 03:14:39;;;;;;;6.97;4.38;;;15.70;99.90;;;;;;2089422;28;20021;-70
2021/09/17 03:15:40;;;;;;;8.02;3.80;;;15.70;99.90;;;;;;2088993;28;20032;-69
2021/09/17 03:16:41;;;;;;;7.05;4.28;;;15.70;99.90;;;;;;2097424;28;20017;-69
2021/09/17 03:17:41;;;;;;;4.95;3.90;;;15.70;99.90;;;;;;2088155;28;20029;-69
2021/09/17 03:18:42;;;;;;;6.82;4.13;;;15.70;99.90;;;;;;2089283;28;20676;-69
2021/09/17 03:19:43;;;;;;;8.10;4.20;;;15.70;99.90;;;;;;2089525;28;20017;-69
2021/09/17 03:20:44;;;;;;;7.80;4.13;;;15.70;99.90;;;;;;2089503;28;20029;-69
2021/09/17 03:21:45;;;;;;;6.57;4.00;;;15.70;99.90;;;;;;2088762;28;20025;-69
2021/09/17 03:22:46;;;;;;;8.00;4.22;;;15.70;99.90;;;;;;2088947;28;20063;-69
2021/09/17 03:23:46;;;;;;;7.43;4.10;;;15.70;99.90;;;;;;2089580;28;20190;-69
2021/09/17 03:24:47;;;;;;;5.50;4.25;;;15.70;99.90;;;;;;2089488;28;20025;-69
2021/09/17 03:25:47;;;;;;;4.72;4.00;;;15.70;99.90;;;;;;2089477;28;20116;-69
2021/09/17 03:26:48;;;;;;;4.28;3.70;;;15.70;99.90;;;;;;2089569;28;20636;-69
2021/09/17 03:27:49;;;;;;;6.53;3.65;;;15.70;99.90;;;;;;2088785;28;20067;-69
2021/09/17 03:28:49;;;;;;;5.25;3.65;;;15.70;99.90;;;;;;2089538;28;20024;-69
2021/09/17 03:29:50;;;;;;;6.18;4.15;;;15.70;99.90;;;;;;2089548;28;20024;-69
2021/09/17 03:30:51;;;;;;;5.18;3.78;;;15.70;99.90;;;;;;2089374;28;20033;-69
2021/09/17 03:31:51;;;;;;;7.00;4.00;;;15.70;99.90;;;;;;2089426;28;20045;-69
2021/09/17 03:32:52;;;;;;;6.82;4.00;;;15.70;99.90;;;;;;2089334;28;20029;-69
2021/09/17 03:33:53;;;;;;;5.25;4.15;;;15.80;99.90;;;;;;2089526;28;20486;-69
2021/09/17 03:34:53;;;;;;;5.45;3.70;;;15.70;99.90;;;;;;2089613;28;20029;-69
2021/09/17 03:35:54;;;;;;;7.40;3.72;;;15.80;99.90;;;;;;2089593;28;20525;-69
2021/09/17 03:36:55;;;;;;;10.52;4.40;;;15.70;99.90;;;;;;2089573;28;20148;-69
2021/09/17 03:37:55;;;;;;;7.03;4.35;;;15.70;99.90;;;;;;2088832;28;20146;-69
2021/09/17 03:38:56;;;;;;;6.65;4.57;;;15.70;99.90;;;;;;2089868;28;20442;-70
2021/09/17 03:39:57;;;;;;;5.70;4.18;;;15.70;99.90;;;;;;2089453;28;20564;-70
2021/09/17 03:40:57;;;;;;;6.88;4.35;;;15.70;99.90;;;;;;2089411;28;20082;-69
2021/09/17 03:41:58;;;;;;;5.47;3.90;;;15.70;99.90;;;;;;2089453;28;20033;-69
2021/09/17 03:42:59;;;;;;;6.20;4.00;;;15.70;99.90;;;;;;2097022;28;20154;-69
2021/09/17 03:43:59;;;;;;;6.57;4.60;;;15.70;99.90;;;;;;2097291;28;20038;-68
2021/09/17 03:45:00;;;;;;;8.80;4.55;;;15.70;99.90;;;;;;2089444;28;20433;-69
2021/09/17 03:46:01;;;;;;;8.40;4.63;;;15.70;99.90;;;;;;2088409;28;20033;-69
2021/09/17 03:47:01;;;;;;;5.07;4.57;;;15.70;99.90;;;;;;2088667;28;20083;-69
2021/09/17 03:48:07;;;;;;;5.20;4.32;;;15.70;99.90;;;;;;2088894;28;20057;-69
2021/09/17 03:49:08;;;;;;;7.65;4.82;;;15.70;99.90;;;;;;2089161;28;20647;-68
2021/09/17 03:50:09;;;;;;;6.75;4.20;;;15.70;99.90;;;;;;2088888;28;20029;-69
2021/09/17 03:51:09;;;;;;;8.90;4.57;;;15.70;99.90;;;;;;2089350;28;20498;-69
2021/09/17 03:52:10;;;;;;;8.10;4.50;;;15.70;99.90;;;;;;2089501;28;20036;-69
2021/09/17 03:53:11;;;;;;;6.05;4.40;;;15.70;99.90;;;;;;2089554;28;20556;-69
2021/09/17 03:54:11;;;;;;;5.93;4.05;;;15.70;99.90;;;;;;2089412;28;20367;-68
2021/09/17 03:55:12;;;;;;;5.40;4.45;;;15.70;99.90;;;;;;2089501;28;20458;-69
2021/09/17 03:56:12;;;;;;;6.10;4.53;;;15.70;99.90;;;;;;2089374;28;20041;-69
2021/09/17 03:57:13;;;;;;;6.07;4.43;;;15.70;99.90;;;;;;2088486;28;20091;-68
2021/09/17 03:58:14;;;;;;;7.53;4.50;;;15.70;99.90;;;;;;2088539;28;20036;-68
2021/09/17 03:59:14;;;;;;;9.18;5.00;;;15.70;99.90;;;;;;2089483;28;20023;-69
2021/09/17 04:00:15;;;;;;;7.90;5.20;;;15.70;99.90;;;;;;2089135;28;20029;-69
2021/09/17 04:01:16;;;;;;;9.20;5.13;;;15.70;99.90;;;;;;2089320;28;20494;-68
2021/09/17 04:02:16;;;;;;;6.65;4.78;;;15.70;99.90;;;;;;2089296;28;20036;-68
2021/09/17 04:03:17;;;;;;;6.05;4.30;;;15.70;99.90;;;;;;2089347;28;20083;-69
2021/09/17 04:04:17;;;;;;;5.95;4.70;;;15.70;99.90;;;;;;2089423;28;20029;-69
2021/09/17 04:05:18;;;;;;;9.55;5.45;;;15.70;99.90;;;;;;2089151;28;20037;-69
2021/09/17 04:06:19;;;;;;;10.52;5.35;;;15.70;99.90;;;;;;2088604;28;20028;-69
2021/09/17 04:07:19;;;;;;;8.75;4.97;;;15.70;99.90;;;;;;2079342;28;20034;-68
2021/09/17 04:08:20;;;;;;;7.63;4.97;;;15.70;99.90;;;;;;2088622;28;20112;-68
2021/09/17 04:09:21;;;;;;;7.13;5.80;;;15.70;99.90;;;;;;2089149;28;20040;-69
2021/09/17 04:10:21;;;;;;;6.43;5.43;;;15.70;99.90;;;;;;2088550;28;20025;-69
2021/09/17 04:11:22;;;;;;;9.43;5.13;;;15.70;99.90;;;;;;2088530;28;20021;-68
2021/09/17 04:12:23;;;;;;;7.35;5.45;;;15.70;99.90;;;;;;2089234;28;20036;-68
2021/09/17 04:13:23;;;;;;;11.35;5.70;;;15.70;99.90;;;;;;2088935;28;20025;-69
2021/09/17 04:14:25;;;;;;;6.70;5.22;;;15.70;99.90;;;;;;2088468;28;20171;-68
2021/09/17 04:15:25;;;;;;;7.80;5.60;;;15.70;99.90;;;;;;2088567;28;20029;-68
2021/09/17 04:16:26;;;;;;;9.25;6.55;;;15.70;99.90;;;;;;2088702;28;20031;-68
2021/09/17 04:17:26;;;;;;;9.18;6.82;;;15.70;99.90;;;;;;2087820;28;20032;-68
2021/09/17 04:18:27;;;;;;;9.07;6.35;;;15.70;99.90;;;;;;2089142;28;20057;-69
2021/09/17 04:19:28;;;;;;;8.15;6.32;;;15.70;99.90;;;;;;2088466;28;20060;-68
2021/09/17 04:20:28;;;;;;;7.95;5.70;;;15.60;99.90;;;;;;2088558;28;20047;-68
2021/09/17 04:21:29;;;;;;;7.78;5.53;;;15.70;99.90;;;;;;2088342;28;20025;-69
2021/09/17 04:22:30;;;;;;;10.77;6.90;;;15.70;99.90;;;;;;2080139;28;20029;-69
2021/09/17 04:23:31;;;;;;;9.75;7.18;;;15.70;99.90;;;;;;2088479;28;20432;-68
2021/09/17 04:24:31;;;;;;;8.50;6.30;;;15.70;99.90;;;;;;2088627;28;20068;-69
2021/09/17 04:25:32;;;;;;;7.45;6.13;;;15.60;99.90;;;;;;2089073;28;20459;-69
2021/09/17 04:26:32;;;;;;;8.07;6.50;;;15.70;99.90;;;;;;2088423;28;20074;-69
2021/09/17 04:27:33;;;;;;;9.98;6.72;;;15.70;99.90;;;;;;2088038;28;20078;-69
2021/09/17 04:28:34;;;;;;;12.70;7.18;;;15.70;99.90;;;;;;2089527;28;20064;-69
2021/09/17 04:29:34;;;;;;;11.20;6.75;;;15.60;99.90;;;;;;2089312;28;20036;-69
2021/09/17 04:30:35;;;;;;;11.50;7.60;;;15.60;99.90;;;;;;2088960;28;20106;-68
2021/09/17 04:31:36;;;;;;;10.02;7.32;;;15.60;99.90;;;;;;2088954;28;20505;-68
2021/09/17 04:32:37;;;;;;;10.45;6.80;;;15.60;99.90;;;;;;2089530;28;20029;-69
2021/09/17 04:33:37;;;;;;;9.07;6.50;;;15.60;99.90;;;;;;2089117;28;20037;-68
2021/09/17 04:34:38;;;;;;;8.38;6.75;;;15.70;99.90;;;;;;2089486;28;20055;-69
2021/09/17 04:35:38;;;;;;;11.10;7.03;;;15.70;99.90;;;;;;2089414;28;20029;-69
2021/09/17 04:36:39;;;;;;;7.75;6.35;;;15.60;99.90;;;;;;2088913;28;20021;-68
2021/09/17 04:37:47;;;;;;;9.02;6.40;;;15.60;99.90;;;;;;2088607;28;20029;-69
2021/09/17 04:38:48;;;;;;;7.57;5.90;;;15.60;99.90;;;;;;2089160;28;20071;-69
2021/09/17 04:39:48;;;;;;;8.18;6.15;;;15.60;99.90;;;;;;2089056;28;20021;-69
2021/09/17 04:40:49;;;;;;;8.20;5.95;;;15.60;99.90;;;;;;2088476;28;20051;-69
2021/09/17 04:41:49;;;;;;;10.60;6.70;;;15.70;99.90;;;;;;2088560;28;20574;-68
2021/09/17 04:42:51;;;;;;;13.25;7.20;;;15.60;99.90;;;;;;2089080;28;20482;-69
2021/09/17 04:43:51;;;;;;;10.85;7.22;;;15.60;99.90;;;;;;2088988;28;20048;-68
2021/09/17 04:44:52;;;;;;;11.32;7.32;;;15.70;99.90;;;;;;2088886;28;20028;-68
2021/09/17 04:45:53;;;;;;;9.98;7.20;;;15.60;99.90;;;;;;2089000;28;20033;-68
2021/09/17 04:46:54;;;;;;;8.93;7.00;;;15.60;99.90;;;;;;2089034;28;20032;-70
2021/09/17 04:47:55;;;;;;;8.20;6.25;;;15.60;99.90;;;;;;2088278;28;20033;-70
2021/09/17 04:48:55;;;;;;;9.38;6.25;;;15.60;99.90;;;;;;2088793;28;20055;-70
2021/09/17 04:49:56;;;;;;;11.90;6.47;;;15.60;99.90;;;;;;2088798;28;20405;-70
2021/09/17 04:50:56;;;;;;;11.48;7.68;;;15.70;99.90;;;;;;2088851;28;20040;-70
2021/09/17 04:51:57;;;;;;;10.02;7.03;;;15.60;99.90;;;;;;2088917;28;20494;-69
2021/09/17 04:52:58;;;;;;;10.40;7.35;;;15.70;99.90;;;;;;2088974;28;20032;-69
2021/09/17 04:53:58;;;;;;;11.05;7.63;;;15.70;99.90;;;;;;2088197;28;20029;-71
2021/09/17 04:54:59;;;;;;;8.98;6.90;;;15.70;99.90;;;;;;2088271;28;20044;-70
2021/09/17 04:56:00;;;;;;;12.02;7.88;;;15.70;99.90;;;;;;2089070;28;20041;-71
2021/09/17 04:57:01;;;;;;;9.93;7.22;;;15.70;99.90;;;;;;2088640;28;20048;-71
2021/09/17 04:58:03;;;;;;;9.77;7.00;;;15.70;99.90;;;;;;2088622;28;20029;-70
2021/09/17 04:59:04;;;;;;;11.40;6.88;;;15.60;99.90;;;;;;2089536;28;20013;-71
2021/09/17 05:00:06;;;;;;;8.50;6.78;;;15.70;99.90;;;;;;2089695;28;20013;-71
2021/09/17 05:01:06;;;;;;;9.55;6.68;;;15.70;99.90;;;;;;2089242;28;20021;-72
2021/09/17 05:02:07;;;;;;;8.35;6.28;;;15.70;99.90;;;;;;2089042;28;20101;-71
2021/09/17 05:03:08;;;;;;;8.90;6.68;;;15.70;99.90;;;;;;2089330;28;20355;-70
2021/09/17 05:04:08;;;;;;;8.68;6.68;;;15.70;99.90;;;;;;2088825;28;20524;-71
2021/09/17 05:05:09;;;;;;;9.30;6.75;;;15.70;99.90;;;;;;2080264;28;20040;-69
2021/09/17 05:06:10;;;;;;;15.05;7.75;;;15.70;99.90;;;;;;2088577;28;20084;-70
2021/09/17 05:07:11;;;;;;;15.35;8.80;;;15.80;99.90;;;;;;2089064;28;20477;-69
2021/09/17 05:08:11;;;;;;;14.18;8.15;;;15.70;99.90;;;;;;2088186;28;20047;-68
2021/09/17 05:09:12;;;;;;;13.25;8.43;;;15.70;99.90;;;;;;2088691;28;20036;-70
2021/09/17 05:10:13;;;;;;;12.30;8.10;;;15.70;99.90;;;;;;2088674;28;20032;-71
2021/09/17 05:11:13;;;;;;;10.85;8.45;;;15.70;99.90;;;;;;2088019;28;20025;-70
2021/09/17 05:12:14;;;;;;;12.95;8.77;;;15.70;99.90;;;;;;2088036;28;20501;-72
2021/09/17 05:13:15;;;;;;;12.65;8.82;;;15.70;99.90;;;;;;2088544;28;20064;-71
2021/09/17 05:14:15;;;;;;;13.73;8.93;;;15.70;99.90;;;;;;2088615;28;20021;-74
2021/09/17 05:15:16;;;;;;;14.32;8.40;;;15.70;99.90;;;;;;2088694;28;20126;-69
2021/09/17 05:16:17;;;;;;;16.48;8.98;;;15.70;99.90;;;;;;2088148;28;20032;-69